Time;durP1;ratioP1;P1;durP2;ratioP2;P2;SDS_P1;SDS_P2;PMS_P1;PMS_P2;Temp;Humidity;BMP_temperature;BMP_pressure;BME280_temperature;BME280_humidity;BME280_pressure;Samples;Min_cycle;Max_cycle;Signal;HPM_P1;HPM_P2
2023/02/13 00:02:23;;;;;;;31.33;15.88;;;;;;;3.83;59.98;102064.31;5046302;28;20477;-36
2023/02/13 00:04:48;;;;;;;30.70;16.58;;;;;;;3.63;60.07;102048.28;5030544;28;20030;-36
2023/02/13 00:07:14;;;;;;;39.33;17.60;;;;;;;3.46;59.92;102048.84;5031692;28;20026;-35
2023/02/13 00:09:39;;;;;;;35.40;17.30;;;;;;;3.40;61.16;102065.16;5031761;28;20033;-36
2023/02/13 00:12:06;;;;;;;38.80;18.05;;;;;;;3.68;60.33;102071.69;5030900;28;20094;-36
2023/02/13 00:14:38;;;;;;;38.20;18.88;;;;;;;3.71;59.89;102078.50;5038146;28;20421;-36
2023/02/13 00:17:04;;;;;;;39.38;19.25;;;;;;;3.37;61.16;102081.22;5036624;28;20037;-36
2023/02/13 00:19:30;;;;;;;48.30;22.88;;;;;;;3.25;61.21;102063.72;5031670;28;20026;-36
2023/02/13 00:21:55;;;;;;;44.40;22.73;;;;;;;3.05;62.13;102073.22;5031371;28;20045;-36
2023/02/13 00:24:21;;;;;;;41.78;20.25;;;;;;;3.15;62.47;102085.56;5030691;28;20031;-36
2023/02/13 00:26:46;;;;;;;33.95;16.85;;;;;;;3.03;62.31;102062.81;5030638;28;20060;-36
2023/02/13 00:29:12;;;;;;;33.78;17.63;;;;;;;3.11;62.53;102085.94;5030147;28;20030;-36
2023/02/13 00:31:37;;;;;;;32.35;16.73;;;;;;;2.78;63.42;102088.44;5030396;28;20033;-36
2023/02/13 00:34:03;;;;;;;34.17;17.10;;;;;;;2.94;62.66;102084.59;5031191;28;20068;-36
2023/02/13 00:36:28;;;;;;;33.83;16.95;;;;;;;3.10;62.64;102090.34;5031306;28;20100;-37
2023/02/13 00:38:54;;;;;;;37.95;19.08;;;;;;;3.27;61.83;102090.81;5030767;28;20037;-36
2023/02/13 00:41:20;;;;;;;43.00;21.65;;;;;;;3.28;61.70;102087.22;5030776;28;20038;-36
2023/02/13 00:43:46;;;;;;;49.08;22.88;;;;;;;3.05;61.91;102076.69;5033154;28;20041;-36
2023/02/13 00:46:12;;;;;;;55.03;25.40;;;;;;;3.09;61.97;102062.31;5030706;28;20517;-35
2023/02/13 00:48:38;;;;;;;51.80;24.20;;;;;;;3.22;61.23;102076.19;5030976;28;20040;-36
2023/02/13 00:51:08;;;;;;;43.80;20.00;;;;;;;3.19;61.78;102089.63;5030861;28;20037;-36
2023/02/13 00:53:34;;;;;;;40.22;20.77;;;;;;;3.06;61.76;102077.53;5030300;28;20037;-36
2023/02/13 00:56:00;;;;;;;40.72;20.05;;;;;;;2.97;62.36;102089.63;5030041;28;20057;-36
2023/02/13 00:58:28;;;;;;;43.67;20.85;;;;;;;2.71;62.83;102063.50;5028801;28;20820;-35
2023/02/13 01:00:54;;;;;;;40.33;21.27;;;;;;;2.53;63.31;102065.75;5030363;28;20029;-36
2023/02/13 01:03:22;;;;;;;45.08;21.58;;;;;;;2.87;62.77;102083.41;5030389;28;20090;-36
2023/02/13 01:05:48;;;;;;;47.58;21.67;;;;;;;2.70;63.14;102082.06;5034846;28;20029;-36
2023/02/13 01:08:15;;;;;;;41.67;19.15;;;;;;;2.79;62.94;102082.19;5030575;28;20382;-35
2023/02/13 01:10:41;;;;;;;41.20;19.40;;;;;;;2.64;63.60;102083.38;5030558;28;20109;-36
2023/02/13 01:13:08;;;;;;;36.20;19.02;;;;;;;2.29;64.98;102078.13;5036912;28;20029;-36
2023/02/13 01:15:34;;;;;;;49.40;21.63;;;;;;;2.04;66.42;102082.59;5030417;28;20048;-36
2023/02/13 01:18:00;;;;;;;57.13;24.30;;;;;;;2.12;65.61;102067.06;5030375;28;20417;-36
2023/02/13 01:20:26;;;;;;;90.70;34.40;;;;;;;2.16;65.99;102078.22;5030399;28;20036;-35
2023/02/13 01:22:52;;;;;;;73.88;30.38;;;;;;;2.03;64.83;102066.94;5030142;28;20029;-36
2023/02/13 01:25:17;;;;;;;50.03;21.90;;;;;;;2.02;65.45;102079.22;5035515;28;20025;-36
2023/02/13 01:27:43;;;;;;;56.33;25.10;;;;;;;1.50;67.45;102085.69;5032628;28;20037;-36
2023/02/13 01:30:12;;;;;;;36.55;18.35;;;;;;;1.31;67.44;102067.72;5029959;28;20554;-36
2023/02/13 01:32:39;;;;;;;99.50;35.47;;;;;;;1.55;66.86;102081.78;5029981;28;20026;-36
2023/02/13 01:35:05;;;;;;;51.97;22.98;;;;;;;1.68;66.87;102086.97;5030222;28;20033;-36
2023/02/13 01:37:31;;;;;;;43.63;19.40;;;;;;;1.52;66.58;102078.50;5029535;28;20045;-36
2023/02/13 01:39:57;;;;;;;51.63;21.85;;;;;;;1.60;67.09;102092.78;5029939;28;20140;-37
2023/02/13 01:42:31;;;;;;;65.70;26.45;;;;;;;1.36;67.27;102076.13;5030192;28;20095;-37
2023/02/13 01:45:00;;;;;;;38.88;19.20;;;;;;;1.66;66.87;102088.03;5030098;28;20060;-36
2023/02/13 01:47:46;;;;;;;37.00;17.83;;;;;;;1.46;67.06;102069.28;5029700;28;20033;-37
2023/02/13 01:50:20;;;;;;;35.72;16.60;;;;;;;1.42;66.82;102088.84;5028671;28;20038;-36
2023/02/13 01:52:58;;;;;;;24.73;14.32;;;;;;;1.26;67.81;102080.38;5029838;28;20095;-36
2023/02/13 01:55:24;;;;;;;;;;;;;;;1.07;68.65;102094.78;5030016;28;20043;-36
2023/02/13 01:58:01;;;;;;;34.88;16.55;;;;;;;0.92;68.33;102096.72;5029868;28;19999;-36
2023/02/13 02:00:27;;;;;;;31.95;15.25;;;;;;;0.77;69.03;102103.84;5029463;28;20026;-36
2023/02/13 02:02:59;;;;;;;36.78;16.02;;;;;;;0.77;69.48;102100.38;5029765;28;20059;-36
2023/02/13 02:05:27;;;;;;;29.08;16.48;;;;;;;0.77;68.47;102076.75;5029516;28;20128;-36
2023/02/13 02:07:56;;;;;;;30.05;15.55;;;;;;;0.93;68.63;102100.16;5029494;28;20057;-36
2023/02/13 02:10:21;;;;;;;32.28;17.30;;;;;;;0.84;68.33;102087.66;5029197;28;20037;-36
2023/02/13 02:13:03;;;;;;;33.15;16.48;;;;;;;0.83;69.20;102109.63;5029327;28;20406;-36
2023/02/13 02:15:28;;;;;;;35.00;17.92;;;;;;;0.71;69.50;102109.50;5029394;28;20040;-36
2023/02/13 02:17:54;;;;;;;30.67;16.27;;;;;;;0.63;68.48;102088.19;5029440;28;20041;-36
2023/02/13 02:20:19;;;;;;;32.35;16.80;;;;;;;0.66;68.50;102122.13;5028091;28;20036;-36
2023/02/13 02:23:00;;;;;;;30.27;16.25;;;;;;;0.61;68.90;102118.94;5029712;28;20037;-37
2023/02/13 02:25:57;;;;;;;33.97;17.20;;;;;;;0.53;69.80;102126.50;5028887;28;20064;-36
2023/02/13 02:28:44;;;;;;;32.30;15.27;;;;;;;0.43;70.38;102114.94;5028990;28;20029;-36
2023/02/13 02:31:46;;;;;;;31.60;16.45;;;;;;;0.43;69.99;102125.44;5029419;28;20022;-36
2023/02/13 02:34:12;;;;;;;31.20;15.52;;;;;;;0.30;71.31;102126.25;5029310;28;20121;-36
2023/02/13 02:37:04;;;;;;;31.85;16.33;;;;;;;0.39;70.60;102135.31;5029297;28;20125;-36
2023/02/13 02:39:38;;;;;;;35.30;18.55;;;;;;;0.31;71.41;102133.19;5028683;28;20148;-36
2023/02/13 02:42:17;;;;;;;33.83;18.83;;;;;;;0.02;72.96;102131.63;5028918;28;20032;-37
2023/02/13 02:45:06;;;;;;;31.45;15.52;;;;;;;0.20;71.76;102125.16;5029421;28;20071;-36
2023/02/13 02:50:42;;;;;;;33.40;16.13;;;;;;;0.26;70.91;102135.25;5029258;28;20048;-37
2023/02/13 02:53:33;;;;;;;101.32;44.65;;;;;;;0.03;72.18;102125.44;5029282;28;20022;-36
2023/02/13 02:56:11;;;;;;;74.07;33.40;;;;;;;0.30;71.46;102136.75;5029043;28;20038;-36
2023/02/13 03:07:34;;;;;;;63.03;32.33;;;;;;;0.31;70.87;102132.34;5028970;28;20091;-36
2023/02/13 03:13:28;;;;;;;45.53;21.75;;;;;;;-0.01;69.85;102151.03;5029198;28;20500;-36
2023/02/13 03:25:09;;;;;;;39.30;18.58;;;;;;;0.01;70.70;102159.63;5032858;28;20056;-36
2023/02/13 03:30:56;;;;;;;34.97;16.73;;;;;;;-0.06;69.55;102163.56;5032806;28;20041;-36
2023/02/13 03:33:27;;;;;;;39.83;19.25;;;;;;;-0.08;69.95;102163.69;5031153;28;20489;-36
2023/02/13 03:38:51;;;;;;;39.20;18.90;;;;;;;-0.37;70.08;102141.09;5032269;28;20094;-36
2023/02/13 03:41:26;;;;;;;36.97;17.67;;;;;;;-0.34;70.93;102157.47;5032201;28;20021;-36
2023/02/13 03:44:09;;;;;;;35.50;18.15;;;;;;;-0.22;71.79;102155.88;5032273;28;20037;-36
2023/02/13 03:46:38;;;;;;;42.05;22.27;;;;;;;-0.22;70.91;102151.47;5032106;28;20025;-36
2023/02/13 03:52:25;;;;;;;40.20;19.15;;;;;;;-0.23;71.61;102149.75;5032377;28;20043;-36
2023/02/13 04:00:42;;;;;;;35.05;19.70;;;;;;;-0.34;73.22;102159.25;5052002;28;20044;-36
2023/02/13 04:03:30;;;;;;;40.72;19.35;;;;;;;-0.41;72.48;102145.69;5051919;28;20056;-36
2023/02/13 04:06:15;;;;;;;41.20;22.48;;;;;;;-0.50;72.62;102141.84;5051806;28;20033;-37
2023/02/13 04:08:41;;;;;;;44.40;24.40;;;;;;;-0.59;73.38;102157.31;5051805;28;20029;-36
2023/02/13 04:11:19;;;;;;;47.63;23.88;;;;;;;-0.61;73.97;102149.56;5051623;28;20036;-36
2023/02/13 04:13:52;;;;;;;45.67;23.48;;;;;;;-0.52;73.68;102169.09;5051555;28;20094;-36
2023/02/13 04:16:28;;;;;;;51.28;28.90;;;;;;;-0.54;73.35;102147.38;5051630;28;20095;-36
2023/02/13 04:18:56;;;;;;;132.60;58.50;;;;;;;-0.56;72.88;102152.72;5051728;28;20021;-37
2023/02/13 04:21:21;;;;;;;128.90;56.58;;;;;;;-0.28;72.53;102169.38;5051151;28;20028;-35
2023/02/13 04:23:47;;;;;;;347.25;120.25;;;;;;;-0.20;71.67;102154.00;5051344;28;20404;-36
2023/02/13 04:26:21;;;;;;;1034.78;379.95;;;;;;;-0.47;72.66;102173.13;5051017;28;20028;-36
2023/02/13 04:28:47;;;;;;;219.10;91.25;;;;;;;-0.85;74.75;102155.34;5051488;28;20024;-36
2023/02/13 04:31:12;;;;;;;90.63;38.63;;;;;;;-0.38;72.40;102176.13;5051016;28;20039;-36
2023/02/13 04:33:37;;;;;;;48.05;26.17;;;;;;;-0.99;74.45;102137.00;5050706;28;20391;-36
2023/02/13 04:36:04;;;;;;;52.28;27.45;;;;;;;-0.88;74.19;102163.41;5051141;28;20108;-36
2023/02/13 04:38:29;;;;;;;89.40;42.15;;;;;;;-0.62;73.33;102166.19;5051056;28;20040;-37
2023/02/13 04:40:54;;;;;;;61.70;29.60;;;;;;;-1.00;74.36;102148.44;5050596;28;20061;-36
2023/02/13 04:43:24;;;;;;;52.33;26.30;;;;;;;-1.06;74.83;102175.00;5051121;28;20479;-36
2023/02/13 04:45:50;;;;;;;46.92;24.33;;;;;;;-1.13;74.48;102157.94;5050951;28;20040;-36
2023/02/13 04:48:16;;;;;;;65.13;40.00;;;;;;;-1.05;74.67;102174.88;5050967;28;20033;-36
2023/02/13 04:50:41;;;;;;;52.67;32.92;;;;;;;-1.20;74.59;102162.72;5051106;28;20029;-37
2023/02/13 04:53:07;;;;;;;45.20;24.15;;;;;;;-1.18;74.10;102166.06;5050793;28;20173;-36
2023/02/13 04:55:32;;;;;;;43.53;21.98;;;;;;;-1.10;73.88;102163.00;5050712;28;20044;-37
2023/02/13 04:57:57;;;;;;;46.58;26.15;;;;;;;-1.10;72.72;102153.38;5051214;28;20283;-36
2023/02/13 05:00:28;;;;;;;70.68;33.35;;;;;;;-1.01;72.86;102178.16;5050562;28;20108;-36
2023/02/13 05:02:59;;;;;;;162.43;56.08;;;;;;;-1.16;73.83;102158.16;5050617;28;20645;-36
2023/02/13 05:05:25;;;;;;;168.68;56.45;;;;;;;-1.09;73.59;102169.91;5050590;28;20028;-36
2023/02/13 05:07:50;;;;;;;271.48;80.72;;;;;;;-0.83;72.52;102182.28;5050504;28;20497;-36
2023/02/13 05:10:16;;;;;;;314.10;90.22;;;;;;;-1.08;73.12;102161.97;5050407;28;20029;-36
2023/02/13 05:12:41;;;;;;;344.30;100.60;;;;;;;-1.15;73.45;102171.13;5050512;28;20117;-36
2023/02/13 05:15:07;;;;;;;385.75;112.70;;;;;;;-0.93;73.29;102194.25;5050265;28;20116;-36
2023/02/13 05:17:32;;;;;;;294.30;90.97;;;;;;;-1.05;73.57;102181.91;5050265;28;20025;-36
2023/02/13 05:19:58;;;;;;;255.02;80.55;;;;;;;-0.96;72.89;102196.22;5050276;28;20043;-36
2023/02/13 05:25:08;;;;;;;172.07;57.55;;;;;;;-1.13;73.46;102191.97;5050446;28;20119;-36
2023/02/13 05:27:33;;;;;;;153.93;54.10;;;;;;;-0.97;72.87;102203.22;5050011;28;20116;-36
2023/02/13 05:29:59;;;;;;;139.88;50.67;;;;;;;-0.70;72.23;102207.75;5050014;28;20028;-36
2023/02/13 05:32:24;;;;;;;156.13;50.33;;;;;;;-0.96;71.14;102199.69;5050154;28;20025;-36
2023/02/13 05:34:50;;;;;;;95.05;40.55;;;;;;;-1.33;71.91;102214.91;5049983;28;20406;-36
2023/02/13 05:37:15;;;;;;;75.95;31.58;;;;;;;-1.40;72.51;102218.84;5049761;28;20025;-36
2023/02/13 05:39:40;;;;;;;115.65;47.17;;;;;;;-1.96;74.12;102204.53;5049910;28;20190;-35
2023/02/13 05:42:06;;;;;;;88.72;35.40;;;;;;;-1.73;73.94;102217.19;5050030;28;20489;-37
2023/02/13 05:44:31;;;;;;;80.28;35.22;;;;;;;-1.74;75.54;102227.75;5048072;28;20461;-37
2023/02/13 05:46:57;;;;;;;90.85;33.92;;;;;;;-1.62;74.69;102230.50;5049852;28;20025;-35
2023/02/13 05:49:22;;;;;;;95.70;43.95;;;;;;;-1.45;74.65;102207.78;5049826;28;20029;-37
2023/02/13 05:51:50;;;;;;;63.45;30.02;;;;;;;-1.54;74.03;102190.84;5049434;28;20037;-36
2023/02/13 05:54:16;;;;;;;72.82;35.50;;;;;;;-1.51;74.82;102219.44;5049933;28;20036;-37
2023/02/13 05:56:41;;;;;;;61.47;29.58;;;;;;;-1.49;74.32;102196.66;5049708;28;20025;-34
2023/02/13 05:59:07;;;;;;;63.35;31.73;;;;;;;-1.20;74.71;102235.19;5048532;28;20464;-36
2023/02/13 06:01:33;;;;;;;62.38;30.27;;;;;;;-1.03;74.98;102241.09;5049468;28;20489;-36
2023/02/13 06:03:58;;;;;;;65.82;31.25;;;;;;;-1.04;74.68;102209.78;5048284;28;20226;-36
2023/02/13 06:06:24;;;;;;;49.75;23.55;;;;;;;-0.96;74.59;102223.28;5049218;28;20029;-36
2023/02/13 06:08:50;;;;;;;49.92;23.08;;;;;;;-0.96;74.73;102239.00;5049543;28;20056;-36
2023/02/13 06:11:15;;;;;;;44.58;20.85;;;;;;;-0.87;75.89;102241.03;5049315;28;20389;-36
2023/02/13 06:13:41;;;;;;;40.90;21.45;;;;;;;-0.79;75.75;102240.59;5049440;28;20033;-36
2023/02/13 06:16:07;;;;;;;42.28;22.63;;;;;;;-0.74;76.33;102237.69;5049477;28;20028;-36
2023/02/13 06:18:34;;;;;;;39.63;20.02;;;;;;;-0.65;75.85;102231.91;5049187;28;20420;-37
2023/02/13 06:20:59;;;;;;;44.53;23.85;;;;;;;-0.50;75.68;102230.97;5048892;28;20040;-36
2023/02/13 06:23:25;;;;;;;39.22;21.92;;;;;;;-0.44;75.48;102224.53;5048737;28;20041;-35
2023/02/13 06:25:50;;;;;;;55.30;24.48;;;;;;;-0.23;74.67;102243.31;5049353;28;20457;-35
2023/02/13 06:28:16;;;;;;;73.80;36.20;;;;;;;-0.04;73.01;102245.63;5047919;28;20021;-35
2023/02/13 06:30:41;;;;;;;65.72;31.80;;;;;;;-0.01;73.60;102241.03;5049083;28;20082;-35
2023/02/13 06:33:07;;;;;;;66.00;32.80;;;;;;;0.05;73.88;102242.44;5049424;28;20449;-36
2023/02/13 06:35:32;;;;;;;49.25;25.45;;;;;;;0.14;72.91;102246.25;5048546;28;20060;-35
2023/02/13 06:37:58;;;;;;;55.42;25.92;;;;;;;0.23;72.78;102234.38;5049521;28;20400;-36
2023/02/13 06:40:23;;;;;;;49.20;26.45;;;;;;;0.47;73.14;102245.91;5048708;28;20529;-36
2023/02/13 06:42:49;;;;;;;46.00;23.17;;;;;;;0.50;72.81;102244.84;5049200;28;20025;-35
2023/02/13 06:45:14;;;;;;;45.47;22.77;;;;;;;0.51;72.71;102246.53;5048721;28;20098;-35
2023/02/13 06:47:44;;;;;;;45.55;24.15;;;;;;;0.52;72.70;102237.72;5048793;28;20075;-35
2023/02/13 06:50:12;;;;;;;38.80;20.95;;;;;;;0.86;71.94;102223.22;5048742;28;20033;-35
2023/02/13 06:52:37;;;;;;;44.15;21.23;;;;;;;1.09;71.28;102245.31;5048935;28;20056;-35
2023/02/13 06:55:04;;;;;;;38.80;18.23;;;;;;;0.82;72.26;102224.38;5049061;28;20041;-35
2023/02/13 06:57:31;;;;;;;34.40;17.50;;;;;;;1.05;72.18;102232.50;5051716;28;20041;-35
2023/02/13 06:59:58;;;;;;;35.75;18.58;;;;;;;0.77;71.26;102214.16;5052933;28;20117;-35
2023/02/13 07:02:24;;;;;;;40.03;19.95;;;;;;;1.01;70.43;102226.59;5052647;28;20033;-35
2023/02/13 07:04:49;;;;;;;43.78;20.20;;;;;;;1.09;69.85;102205.06;5053179;28;20090;-36
2023/02/13 07:07:14;;;;;;;36.70;18.80;;;;;;;1.39;69.36;102236.31;5052985;28;20130;-35
2023/02/13 07:09:40;;;;;;;32.80;17.90;;;;;;;1.26;69.18;102230.19;5052813;28;20040;-36
2023/02/13 07:12:06;;;;;;;36.38;18.60;;;;;;;1.38;69.60;102235.44;5052918;28;20025;-36
2023/02/13 07:14:31;;;;;;;45.80;21.25;;;;;;;1.67;69.96;102239.63;5051389;28;20029;-35
2023/02/13 07:16:57;;;;;;;34.10;20.27;;;;;;;1.58;69.58;102226.19;5052896;28;20102;-36
2023/02/13 07:19:22;;;;;;;38.13;20.38;;;;;;;1.67;68.66;102232.56;5052174;28;20456;-35
2023/02/13 07:21:48;;;;;;;39.83;20.40;;;;;;;1.89;67.64;102233.72;5052533;28;20029;-35
2023/02/13 07:24:13;;;;;;;47.58;21.30;;;;;;;2.12;66.84;102245.22;5052551;28;20029;-36
2023/02/13 07:26:38;;;;;;;40.72;21.40;;;;;;;2.24;66.70;102239.06;5052519;28;20108;-36
2023/02/13 07:29:04;;;;;;;77.13;52.17;;;;;;;2.33;66.52;102234.91;5052550;28;20025;-36
2023/02/13 07:31:34;;;;;;;36.83;20.67;;;;;;;2.45;66.30;102220.84;5052054;28;20048;-35
2023/02/13 07:33:59;;;;;;;41.67;19.35;;;;;;;2.65;65.34;102227.28;5051183;28;20122;-35
2023/02/13 07:36:26;;;;;;;41.53;21.67;;;;;;;2.71;65.10;102247.09;5052581;28;20117;-35
2023/02/13 07:38:51;;;;;;;56.45;33.45;;;;;;;3.06;63.49;102241.78;5052331;28;20026;-35
2023/02/13 07:41:26;;;;;;;49.67;25.60;;;;;;;3.03;63.25;102235.94;5048863;28;20047;-36
2023/02/13 07:43:53;;;;;;;41.63;21.50;;;;;;;3.17;64.01;102226.03;5041617;28;20035;-35
2023/02/13 07:46:18;;;;;;;37.97;20.70;;;;;;;3.46;62.77;102238.75;5051680;28;20021;-36
2023/02/13 07:48:44;;;;;;;45.20;24.13;;;;;;;3.54;62.72;102222.34;5052466;28;20163;-36
2023/02/13 07:51:09;;;;;;;41.42;22.13;;;;;;;3.86;61.42;102240.06;5052062;28;20520;-37
2023/02/13 07:53:35;;;;;;;41.65;22.63;;;;;;;3.76;61.33;102226.75;5051821;28;20032;-42
2023/02/13 07:56:07;;;;;;;64.47;29.60;;;;;;;3.92;60.46;102232.50;5051926;28;20055;-36
2023/02/13 07:58:33;;;;;;;47.78;24.20;;;;;;;4.02;60.39;102237.88;5050390;28;20028;-36
2023/02/13 08:01:05;;;;;;;42.78;22.10;;;;;;;4.06;60.21;102222.66;5051664;28;20036;-36
2023/02/13 08:03:30;;;;;;;46.05;22.63;;;;;;;4.27;59.13;102202.44;5051704;28;20467;-35
2023/02/13 08:05:56;;;;;;;44.38;23.77;;;;;;;4.28;59.46;102219.94;5051951;28;20024;-36
2023/02/13 08:08:21;;;;;;;44.15;23.02;;;;;;;4.50;58.01;102231.44;5050872;28;20033;-36
2023/02/13 08:13:31;;;;;;;42.38;21.25;;;;;;;4.74;57.56;102221.47;5051091;28;20150;-35
2023/02/13 08:15:56;;;;;;;34.35;17.33;;;;;;;4.91;56.17;102216.56;5051313;28;20082;-36
2023/02/13 08:18:22;;;;;;;26.20;12.80;;;;;;;4.85;55.09;102211.81;5051488;28;20021;-36
2023/02/13 08:20:47;;;;;;;25.00;12.82;;;;;;;4.80;55.48;102220.97;5051396;28;20112;-36
2023/02/13 08:23:13;;;;;;;24.13;12.15;;;;;;;4.98;54.76;102212.44;5051268;28;20836;-36
2023/02/13 08:25:38;;;;;;;25.70;12.68;;;;;;;5.55;53.80;102231.41;5051102;28;20025;-35
2023/02/13 08:28:04;;;;;;;21.88;11.55;;;;;;;5.46;53.47;102235.69;5049937;28;20032;-35
2023/02/13 08:30:30;;;;;;;19.70;11.20;;;;;;;5.54;53.02;102230.56;5051412;28;20413;-35
2023/02/13 08:32:55;;;;;;;22.90;12.73;;;;;;;5.40;53.04;102207.09;5051265;28;20108;-35
2023/02/13 08:35:28;;;;;;;26.55;14.60;;;;;;;5.82;52.20;102201.69;5050953;28;20035;-36
2023/02/13 08:37:54;;;;;;;19.63;9.65;;;;;;;5.98;50.24;102217.91;5051174;28;20040;-36
2023/02/13 08:40:20;;;;;;;16.13;8.63;;;;;;;6.17;50.20;102208.34;5050970;28;20057;-36
2023/02/13 08:42:45;;;;;;;15.05;9.00;;;;;;;6.24;48.72;102223.56;5051067;28;20028;-36
2023/02/13 08:45:10;;;;;;;16.45;8.10;;;;;;;6.45;48.50;102209.34;5050865;28;20076;-36
2023/02/13 08:47:38;;;;;;;13.95;8.60;;;;;;;6.59;47.99;102200.97;5050955;28;20028;-36
2023/02/13 08:50:05;;;;;;;14.00;7.63;;;;;;;6.69;47.83;102208.94;5050915;28;20039;-36
2023/02/13 08:52:30;;;;;;;10.45;5.57;;;;;;;6.63;45.92;102196.22;5051098;28;20032;-35
2023/02/13 08:54:55;;;;;;;14.15;7.47;;;;;;;6.52;48.46;102209.63;5050787;28;20024;-36
2023/02/13 08:57:21;;;;;;;46.75;31.75;;;;;;;6.93;45.82;102212.97;5049415;28;20045;-35
2023/02/13 08:59:46;;;;;;;15.02;8.27;;;;;;;6.81;45.78;102202.50;5051070;28;20107;-35
2023/02/13 09:02:13;;;;;;;13.07;6.68;;;;;;;7.28;44.64;102206.19;5050845;28;20032;-35
2023/02/13 09:04:38;;;;;;;12.52;6.15;;;;;;;7.00;44.65;102187.53;5050809;28;20064;-36
2023/02/13 09:07:04;;;;;;;24.17;13.88;;;;;;;7.04;44.88;102194.22;5050628;28;20106;-36
2023/02/13 09:09:29;;;;;;;15.38;8.38;;;;;;;7.63;44.94;102187.72;5050458;28;20086;-35
2023/02/13 09:11:56;;;;;;;12.15;6.97;;;;;;;7.47;45.93;102198.13;5050628;28;20046;-36
2023/02/13 09:14:23;;;;;;;16.40;7.75;;;;;;;7.41;44.27;102196.06;5050488;28;20025;-36
2023/02/13 09:16:48;;;;;;;12.82;7.38;;;;;;;7.78;45.38;102196.03;5050508;28;20124;-36
2023/02/13 09:19:14;;;;;;;17.23;8.55;;;;;;;7.85;44.69;102193.63;5049624;28;20115;-36
2023/02/13 09:21:39;;;;;;;13.27;8.00;;;;;;;8.21;45.12;102198.97;5049866;28;20055;-35
2023/02/13 09:24:10;;;;;;;15.77;7.95;;;;;;;8.12;43.60;102195.41;5050103;28;20032;-36
2023/02/13 09:26:35;;;;;;;17.35;10.13;;;;;;;8.20;43.99;102192.84;5050120;28;20017;-35
2023/02/13 09:29:01;;;;;;;18.67;11.02;;;;;;;8.08;44.80;102185.25;5050202;28;20660;-35
2023/02/13 09:31:26;;;;;;;16.92;10.30;;;;;;;8.10;44.84;102168.16;5049876;28;20108;-36
2023/02/13 09:33:52;;;;;;;21.40;12.70;;;;;;;8.19;44.48;102163.75;5050094;28;20029;-36
2023/02/13 09:36:24;;;;;;;24.63;12.43;;;;;;;8.17;44.22;102168.38;5050069;28;20021;-35
2023/02/13 09:38:55;;;;;;;22.80;13.23;;;;;;;8.50;44.80;102161.56;5049500;28;20497;-34
2023/02/13 09:41:29;;;;;;;19.27;12.02;;;;;;;8.52;44.40;102172.03;5049750;28;20405;-36
2023/02/13 09:44:01;;;;;;;28.95;14.35;;;;;;;8.58;44.50;102161.66;5048423;28;20040;-36
2023/02/13 09:46:35;;;;;;;39.55;19.30;;;;;;;8.50;44.50;102158.06;5042849;28;20413;-36
2023/02/13 09:49:12;;;;;;;28.60;15.82;;;;;;;8.45;45.49;102154.03;5029563;28;20094;-36
2023/02/13 09:51:41;;;;;;;23.37;13.23;;;;;;;8.20;45.29;102138.84;5045149;28;20032;-35
2023/02/13 09:54:11;;;;;;;25.17;14.43;;;;;;;8.42;45.88;102151.69;5049441;28;20033;-36
2023/02/13 09:56:37;;;;;;;27.13;15.75;;;;;;;8.73;45.08;102145.94;5049601;28;20025;-36
2023/02/13 09:59:24;;;;;;;27.48;16.95;;;;;;;9.17;44.28;102153.84;5049330;28;20025;-36
2023/02/13 10:01:54;;;;;;;24.23;15.00;;;;;;;8.55;44.89;102143.31;5049274;28;20032;-36
2023/02/13 10:04:22;;;;;;;25.42;14.18;;;;;;;9.29;43.98;102140.28;5048503;28;20083;-36
2023/02/13 10:07:12;;;;;;;30.33;17.63;;;;;;;9.55;43.36;102127.75;5048545;28;20073;-36
2023/02/13 10:09:49;;;;;;;26.48;15.45;;;;;;;8.80;44.78;102098.28;5046721;28;20040;-36
2023/02/13 10:12:51;;;;;;;25.55;15.32;;;;;;;8.67;45.45;102119.97;5048270;28;20181;-36
2023/02/13 10:15:29;;;;;;;27.35;14.65;;;;;;;9.16;44.02;102103.47;5048388;28;20032;-36
2023/02/13 10:18:11;;;;;;;45.75;21.17;;;;;;;9.37;44.98;102117.19;5046990;28;20663;-36
2023/02/13 10:20:55;;;;;;;31.10;18.17;;;;;;;9.49;42.92;102091.09;5048147;28;20036;-36
2023/02/13 10:23:43;;;;;;;29.65;17.73;;;;;;;10.19;42.21;102097.88;5048350;28;20029;-36
2023/02/13 10:26:22;;;;;;;29.83;16.60;;;;;;;10.39;41.28;102096.56;5048200;28;20060;-37
2023/02/13 10:31:44;;;;;;;28.60;16.05;;;;;;;9.84;42.25;102083.84;5047799;28;20024;-36
2023/02/13 10:34:14;;;;;;;;;;;;;;;10.18;41.71;102082.88;5049033;28;20063;-36
2023/02/13 10:36:44;;;;;;;29.77;17.67;;;;;;;10.67;41.14;102077.53;5048573;28;20399;-36
2023/02/13 10:39:23;;;;;;;30.58;18.75;;;;;;;10.89;40.54;102080.47;5047757;28;20056;-35
2023/02/13 10:41:56;;;;;;;30.23;17.48;;;;;;;10.06;42.38;102061.88;5048170;28;20057;-36
2023/02/13 10:44:43;;;;;;;29.08;16.00;;;;;;;10.83;40.60;102068.66;5048124;28;20045;-35
2023/02/13 10:47:21;;;;;;;34.20;21.33;;;;;;;11.24;40.03;102063.97;5046382;28;20502;-36
2023/02/13 10:49:55;;;;;;;28.42;17.30;;;;;;;11.66;40.04;102044.03;5047658;28;20640;-36
2023/02/13 10:52:48;;;;;;;30.60;17.30;;;;;;;12.09;38.40;102051.59;5048130;28;20440;-36
2023/02/13 10:56:00;;;;;;;29.83;17.00;;;;;;;12.51;37.55;102044.03;5047634;28;20453;-37
2023/02/13 10:58:28;;;;;;;26.30;16.15;;;;;;;12.46;38.94;102036.53;5037086;28;20128;-36
2023/02/13 11:00:56;;;;;;;25.40;16.00;;;;;;;12.60;37.36;102033.03;5047907;28;20448;-36
2023/02/13 11:03:25;;;;;;;28.33;16.52;;;;;;;12.69;36.73;102023.09;5047611;28;20029;-41
2023/02/13 11:05:52;;;;;;;30.10;18.15;;;;;;;12.27;37.84;102025.34;5047659;28;20118;-35
2023/02/13 11:08:22;;;;;;;29.58;18.02;;;;;;;12.32;38.34;102024.81;5047778;28;20508;-36
2023/02/13 11:10:48;;;;;;;28.98;17.73;;;;;;;12.60;36.90;102025.00;5047908;28;20025;-36
2023/02/13 11:13:16;;;;;;;28.75;17.25;;;;;;;12.49;36.63;102014.78;5048007;28;20100;-36
2023/02/13 11:15:41;;;;;;;28.88;17.63;;;;;;;11.60;37.71;102004.66;5046621;28;20053;-36
2023/02/13 11:18:19;;;;;;;27.58;16.17;;;;;;;11.63;37.70;101990.94;5047623;28;20076;-36
2023/02/13 11:20:49;;;;;;;27.85;17.95;;;;;;;12.48;37.58;101998.88;5047638;28;20401;-36
2023/02/13 11:23:33;;;;;;;29.20;17.45;;;;;;;12.78;36.95;102002.41;5046484;28;20075;-36
2023/02/13 11:26:35;;;;;;;25.38;15.63;;;;;;;13.06;35.92;102005.22;5047641;28;20033;-37
2023/02/13 11:29:13;;;;;;;29.00;18.23;;;;;;;12.84;36.39;101981.06;5047089;28;20044;-35
2023/02/13 11:31:39;;;;;;;28.17;17.60;;;;;;;13.49;35.09;101975.84;5047344;28;20033;-35
2023/02/13 11:34:25;;;;;;;26.23;16.67;;;;;;;13.87;34.81;101980.91;5047534;28;20033;-36
2023/02/13 11:37:12;;;;;;;29.00;17.55;;;;;;;13.62;34.78;101981.31;5047695;28;20033;-36
2023/02/13 11:39:40;;;;;;;29.55;18.30;;;;;;;13.09;35.14;101959.31;5047026;28;20056;-36
2023/02/13 11:42:18;;;;;;;28.60;17.52;;;;;;;12.90;35.69;101978.66;5047452;28;20041;-35
2023/02/13 11:44:48;;;;;;;;;;;;;;;12.66;35.82;101957.34;5051315;28;20390;-36
2023/02/13 11:47:14;;;;;;;26.15;17.55;;;;;;;13.01;36.14;101938.00;5051081;28;19920;-36
2023/02/13 11:49:45;;;;;;;26.83;17.38;;;;;;;13.03;35.49;101955.53;5051116;28;20025;-36
2023/02/13 11:52:32;;;;;;;26.60;16.63;;;;;;;13.89;34.48;101930.59;5051036;28;20040;-36
2023/02/13 11:55:05;;;;;;;32.33;18.73;;;;;;;13.77;33.94;101937.50;5051370;28;20052;-36
2023/02/13 11:57:36;;;;;;;29.42;18.67;;;;;;;13.15;35.51;101944.31;5050726;28;20032;-35
2023/02/13 12:00:27;;;;;;;27.55;17.08;;;;;;;13.30;35.01;101946.97;5051089;28;20110;-36
2023/02/13 12:02:52;;;;;;;26.13;16.65;;;;;;;13.30;34.40;101920.19;5050118;28;20037;-36
2023/02/13 12:05:27;;;;;;;27.17;16.85;;;;;;;13.72;34.09;101935.41;5050758;28;20086;-35
2023/02/13 12:07:58;;;;;;;26.90;16.50;;;;;;;14.29;33.86;101920.13;5050930;28;20033;-36
2023/02/13 12:10:27;;;;;;;29.88;17.65;;;;;;;14.61;32.69;101932.09;5050549;28;20025;-36
2023/02/13 12:13:19;;;;;;;31.33;18.33;;;;;;;14.39;32.96;101928.63;5050381;28;20021;-36
2023/02/13 12:15:49;;;;;;;26.95;16.90;;;;;;;14.29;32.67;101914.75;5050766;28;20048;-36